createdAt,value
2023-04-02T00:00:41.990Z,88.20
2023-04-02T00:06:55.321Z,88.17
2023-04-02T00:12:34.371Z,88.30
2023-04-02T00:18:00.381Z,87.99
2023-04-02T00:23:27.422Z,87.77
2023-04-02T00:28:53.220Z,87.80
2023-04-02T00:34:19.802Z,87.28
2023-04-02T00:39:48.156Z,87.58
2023-04-02T00:45:18.699Z,87.66
2023-04-02T00:50:51.661Z,87.16
2023-04-02T00:56:18.311Z,87.24
2023-04-02T01:01:47.169Z,87.11
2023-04-02T01:07:09.704Z,86.90
2023-04-02T01:12:50.236Z,86.90
2023-04-02T01:18:36.147Z,86.48
2023-04-02T01:24:13.306Z,86.56
2023-04-02T01:29:42.094Z,86.12
2023-04-02T01:35:11.510Z,86.10
2023-04-02T01:40:51.347Z,85.82
2023-04-02T01:46:19.120Z,84.98
2023-04-02T01:51:53.189Z,85.13
2023-04-02T01:57:19.288Z,85.04
2023-04-02T02:02:45.030Z,84.64
2023-04-02T02:08:12.822Z,84.55
2023-04-02T02:13:39.460Z,84.49
2023-04-02T02:19:14.371Z,83.91
2023-04-02T02:24:44.321Z,83.89
2023-04-02T02:30:09.097Z,83.78
2023-04-02T02:35:40.843Z,83.17
2023-04-02T02:41:10.569Z,83.00
2023-04-02T02:46:40.889Z,83.02
2023-04-02T02:52:13.718Z,83.01
2023-04-02T02:57:43.040Z,82.60
2023-04-02T03:03:09.594Z,82.98
2023-04-02T03:08:53.005Z,82.87
2023-04-02T03:14:23.946Z,82.85
2023-04-02T03:20:00.043Z,82.46
2023-04-02T03:25:37.271Z,82.63
2023-04-02T03:31:08.078Z,82.72
2023-04-02T03:36:44.671Z,82.85
2023-04-02T03:42:15.799Z,82.87
2023-04-02T03:47:55.480Z,82.78
2023-04-02T03:53:23.021Z,82.72
2023-04-02T03:58:55.118Z,82.78
2023-04-02T04:04:28.678Z,82.47
2023-04-02T04:10:00.119Z,82.43
2023-04-02T04:15:34.869Z,82.23
2023-04-02T04:21:10.397Z,82.40
2023-04-02T04:26:46.671Z,82.08
2023-04-02T04:32:15.917Z,82.03
2023-04-02T04:37:46.956Z,82.07
2023-04-02T04:43:18.917Z,81.95
2023-04-02T04:48:50.185Z,81.99
2023-04-02T04:54:16.687Z,82.11
2023-04-02T04:59:51.093Z,82.02
2023-04-02T05:05:16.890Z,82.27
2023-04-02T05:10:58.607Z,82.21
2023-04-02T05:16:34.851Z,81.75
2023-04-02T05:22:07.614Z,81.85
2023-04-02T05:27:48.798Z,81.79
2023-04-02T05:33:20.778Z,81.78
2023-04-02T05:38:52.183Z,81.48
2023-04-02T05:44:30.104Z,81.38
2023-04-02T05:50:03.872Z,80.85
2023-04-02T05:55:50.996Z,80.97
2023-04-02T06:01:32.756Z,80.66
2023-04-02T06:07:15.306Z,80.56
2023-04-02T06:12:49.015Z,80.56
2023-04-02T06:18:22.232Z,79.94
2023-04-02T06:23:52.390Z,79.35
2023-04-02T06:29:27.907Z,78.86
2023-04-02T06:34:56.447Z,77.57
2023-04-02T06:40:24.093Z,77.52
2023-04-02T06:45:54.724Z,77.12
2023-04-02T06:51:25.961Z,77.51
2023-04-02T06:57:01.996Z,75.69
2023-04-02T07:02:43.727Z,74.37
2023-04-02T07:08:09.455Z,72.92
2023-04-02T07:13:45.287Z,72.82
2023-04-02T07:19:11.700Z,72.18
2023-04-02T07:24:37.485Z,72.39
2023-04-02T07:29:56.119Z,71.39
2023-04-02T07:35:21.813Z,70.78
2023-04-02T07:40:47.584Z,70.47
2023-04-02T07:46:13.302Z,70.98
2023-04-02T07:51:41.390Z,70.91
2023-04-02T07:57:07.173Z,70.55
2023-04-02T08:02:43.598Z,68.68
2023-04-02T08:08:15.528Z,70.05
2023-04-02T08:13:41.262Z,70.16
2023-04-02T08:19:07.239Z,70.23
2023-04-02T08:24:26.700Z,70.54
2023-04-02T08:29:52.669Z,70.50
2023-04-02T08:35:18.349Z,70.19
2023-04-02T08:40:49.456Z,70.25
2023-04-02T08:46:28.458Z,70.98
2023-04-02T08:51:56.502Z,69.95
2023-04-02T08:57:27.722Z,68.97
2023-04-02T09:03:00.512Z,68.86
2023-04-02T09:08:35.696Z,68.43
2023-04-02T09:14:05.592Z,66.44
2023-04-02T09:19:42.195Z,64.13
2023-04-02T09:25:13.455Z,63.55
2023-04-02T09:30:53.815Z,62.91
2023-04-02T09:36:20.151Z,63.10
2023-04-02T09:41:59.079Z,62.86
2023-04-02T09:47:47.289Z,62.39
2023-04-02T09:53:14.401Z,61.33
2023-04-02T09:58:40.217Z,62.50
2023-04-02T10:04:05.996Z,61.98
2023-04-02T10:09:51.002Z,61.39
2023-04-02T10:15:18.032Z,59.71
2023-04-02T10:20:51.313Z,59.29
2023-04-02T10:26:29.536Z,60.88
2023-04-02T10:32:07.557Z,57.96
2023-04-02T10:37:54.729Z,57.30
2023-04-02T10:43:51.411Z,57.91
2023-04-02T10:49:30.035Z,58.34
2023-04-02T10:55:01.724Z,58.22
2023-04-02T11:00:42.813Z,58.24
2023-04-02T11:06:12.100Z,58.76
2023-04-02T11:11:41.818Z,58.82
2023-04-02T11:17:10.532Z,57.38
2023-04-02T11:22:40.893Z,56.96
2023-04-02T11:28:06.823Z,55.88
2023-04-02T11:34:02.956Z,55.25
2023-04-02T11:39:32.092Z,54.32
2023-04-02T11:44:57.945Z,55.64
2023-04-02T11:50:25.980Z,54.22
2023-04-02T11:55:53.793Z,55.66
2023-04-02T12:01:50.693Z,56.29
2023-04-02T12:07:37.422Z,56.86
2023-04-02T12:13:03.416Z,55.87
2023-04-02T12:18:36.498Z,56.06
2023-04-02T12:24:05.246Z,56.01
2023-04-02T12:29:44.618Z,56.09
2023-04-02T12:35:12.278Z,55.36
2023-04-02T12:40:40.118Z,55.77
2023-04-02T12:46:13.436Z,55.58
2023-04-02T12:51:39.502Z,55.57
2023-04-02T12:57:05.988Z,55.20
2023-04-02T13:02:41.147Z,54.40
2023-04-02T13:08:09.099Z,55.46
2023-04-02T13:13:42.807Z,56.30
2023-04-02T13:19:10.454Z,54.56
2023-04-02T13:24:42.521Z,53.90
2023-04-02T13:30:08.169Z,54.79
2023-04-02T13:35:33.879Z,54.96
2023-04-02T13:40:59.806Z,54.52
2023-04-02T13:46:28.097Z,54.99
2023-04-02T13:51:59.042Z,55.53
2023-04-02T13:57:25.018Z,54.90
2023-04-02T14:02:51.008Z,53.46
2023-04-02T14:08:29.411Z,53.73
2023-04-02T14:14:16.173Z,54.13
2023-04-02T14:20:04.895Z,53.86
2023-04-02T14:25:39.073Z,54.17
2023-04-02T14:31:21.949Z,53.82
2023-04-02T14:36:55.761Z,53.59
2023-04-02T14:42:20.877Z,52.90
2023-04-02T14:47:51.920Z,53.45
2023-04-02T14:53:22.051Z,53.91
2023-04-02T14:58:54.947Z,53.95
2023-04-02T15:04:24.784Z,53.82
2023-04-02T15:09:58.911Z,54.31
2023-04-02T15:15:41.242Z,54.21
2023-04-02T15:21:16.588Z,54.20
2023-04-02T15:26:51.819Z,54.54
2023-04-02T15:32:29.241Z,54.47
2023-04-02T15:38:00.063Z,54.45
2023-04-02T15:43:39.998Z,54.42
2023-04-02T15:49:30.632Z,54.26
2023-04-02T15:55:20.262Z,54.24
2023-04-02T16:00:48.895Z,54.19
2023-04-02T16:06:32.038Z,54.99
2023-04-02T16:11:57.835Z,55.18
2023-04-02T16:17:27.285Z,55.41
2023-04-02T16:23:00.463Z,55.52
2023-04-02T16:28:41.875Z,54.92
2023-04-02T16:34:22.012Z,54.95
2023-04-02T16:39:55.327Z,55.29
2023-04-02T16:45:36.888Z,55.34
2023-04-02T16:51:13.681Z,55.60
2023-04-02T16:56:54.096Z,55.58
2023-04-02T17:02:34.599Z,55.72
2023-04-02T17:08:03.524Z,56.26
2023-04-02T17:13:44.303Z,57.11
2023-04-02T17:19:13.502Z,57.60
2023-04-02T17:24:44.266Z,57.26
2023-04-02T17:30:14.991Z,58.07
2023-04-02T17:35:50.084Z,58.10
2023-04-02T17:41:24.883Z,58.78
2023-04-02T17:46:55.516Z,59.17
2023-04-02T17:52:30.952Z,59.39
2023-04-02T17:58:11.189Z,59.72
2023-04-02T18:04:02.492Z,60.14
2023-04-02T18:09:38.883Z,60.53
2023-04-02T18:15:23.059Z,60.91
2023-04-02T18:20:56.803Z,61.33
2023-04-02T18:26:32.794Z,61.45
2023-04-02T18:32:06.691Z,61.92
2023-04-02T18:37:44.035Z,62.26
2023-04-02T18:43:20.444Z,62.38
2023-04-02T18:49:00.727Z,62.76
2023-04-02T18:54:37.096Z,63.17
2023-04-02T19:00:09.340Z,63.41
2023-04-02T19:05:43.883Z,63.65
2023-04-02T19:11:14.093Z,63.81
2023-04-02T19:17:01.784Z,64.09
2023-04-02T19:22:38.506Z,64.17
2023-04-02T19:28:16.004Z,64.49
2023-04-02T19:33:52.227Z,64.62
2023-04-02T19:39:33.295Z,64.88
2023-04-02T19:45:03.259Z,65.15
2023-04-02T19:50:31.016Z,65.55
2023-04-02T19:55:56.869Z,65.73
2023-04-02T20:01:23.392Z,65.86
2023-04-02T20:06:49.592Z,66.03
2023-04-02T20:12:15.572Z,66.18
2023-04-02T20:17:33.585Z,66.54
2023-04-02T20:22:59.453Z,66.53
2023-04-02T20:28:25.472Z,66.79
2023-04-02T20:33:51.209Z,66.84
2023-04-02T20:39:17.151Z,66.95
2023-04-02T20:44:36.312Z,67.26
2023-04-02T20:50:01.955Z,67.28
2023-04-02T20:55:30.852Z,67.38
2023-04-02T21:00:56.454Z,67.60
2023-04-02T21:06:38.901Z,67.67
2023-04-02T21:12:04.863Z,67.84
2023-04-02T21:17:30.508Z,67.97
2023-04-02T21:22:56.433Z,68.11
2023-04-02T21:28:22.152Z,67.92
2023-04-02T21:33:47.805Z,68.05
2023-04-02T21:39:15.580Z,68.35
2023-04-02T21:44:43.974Z,68.49
2023-04-02T21:50:09.836Z,68.42
2023-04-02T21:55:36.051Z,68.67
2023-04-02T22:01:01.838Z,68.76
2023-04-02T22:06:31.623Z,68.89
2023-04-02T22:12:00.424Z,69.10
2023-04-02T22:17:26.072Z,69.24
2023-04-02T22:22:44.428Z,69.40
2023-04-02T22:28:10.159Z,69.51
2023-04-02T22:33:36.328Z,69.52
2023-04-02T22:39:02.483Z,69.56
2023-04-02T22:44:28.199Z,69.61
2023-04-02T22:49:49.302Z,69.77
2023-04-02T22:55:15.176Z,69.92
2023-04-02T23:00:41.183Z,70.00
2023-04-02T23:06:17.495Z,70.02
2023-04-02T23:11:45.045Z,70.00
2023-04-02T23:17:11.042Z,70.05
2023-04-02T23:22:36.906Z,70.09
2023-04-02T23:28:02.788Z,70.05
2023-04-02T23:33:28.597Z,70.12
2023-04-02T23:38:54.246Z,70.10
2023-04-02T23:44:22.816Z,70.34
2023-04-02T23:49:48.484Z,70.33
2023-04-02T23:55:14.539Z,70.37
